sensor_id;sensor_type;location;lat;lon;timestamp;P1;durP1;ratioP1;P2;durP2;ratioP2
78925;SDS011;68321;51.276;7.208;2023-04-24T00:01:38;1.33;;;0.95;;
78925;SDS011;68321;51.276;7.208;2023-04-24T00:04:04;2.58;;;1.65;;
78925;SDS011;68321;51.276;7.208;2023-04-24T00:06:30;1.27;;;1.02;;
78925;SDS011;68321;51.276;7.208;2023-04-24T00:08:59;1.77;;;1.45;;
78925;SDS011;68321;51.276;7.208;2023-04-24T00:11:25;2.25;;;1.25;;
78925;SDS011;68321;51.276;7.208;2023-04-24T00:13:51;1.65;;;1.50;;
78925;SDS011;68321;51.276;7.208;2023-04-24T00:16:16;2.20;;;2.00;;
78925;SDS011;68321;51.276;7.208;2023-04-24T00:18:41;4.10;;;1.40;;
78925;SDS011;68321;51.276;7.208;2023-04-24T00:21:07;1.83;;;1.50;;
78925;SDS011;68321;51.276;7.208;2023-04-24T00:23:32;1.93;;;1.30;;
78925;SDS011;68321;51.276;7.208;2023-04-24T00:25:57;3.17;;;1.37;;
78925;SDS011;68321;51.276;7.208;2023-04-24T00:28:23;1.13;;;0.90;;
78925;SDS011;68321;51.276;7.208;2023-04-24T00:30:48;2.40;;;1.38;;
78925;SDS011;68321;51.276;7.208;2023-04-24T00:33:13;1.60;;;1.30;;
78925;SDS011;68321;51.276;7.208;2023-04-24T00:35:39;3.85;;;1.60;;
78925;SDS011;68321;51.276;7.208;2023-04-24T00:38:05;1.70;;;1.60;;
78925;SDS011;68321;51.276;7.208;2023-04-24T00:40:30;1.67;;;1.30;;
78925;SDS011;68321;51.276;7.208;2023-04-24T00:42:55;4.47;;;1.50;;
78925;SDS011;68321;51.276;7.208;2023-04-24T00:45:21;4.13;;;1.15;;
78925;SDS011;68321;51.276;7.208;2023-04-24T00:47:46;1.40;;;1.13;;
78925;SDS011;68321;51.276;7.208;2023-04-24T00:50:14;2.60;;;1.25;;
78925;SDS011;68321;51.276;7.208;2023-04-24T00:52:40;1.63;;;1.50;;
78925;SDS011;68321;51.276;7.208;2023-04-24T00:55:06;1.47;;;1.20;;
78925;SDS011;68321;51.276;7.208;2023-04-24T00:57:32;1.98;;;1.60;;
78925;SDS011;68321;51.276;7.208;2023-04-24T00:59:57;2.42;;;1.45;;
78925;SDS011;68321;51.276;7.208;2023-04-24T01:02:23;2.42;;;1.73;;
78925;SDS011;68321;51.276;7.208;2023-04-24T01:04:50;1.92;;;1.73;;
78925;SDS011;68321;51.276;7.208;2023-04-24T01:07:17;2.08;;;1.33;;
78925;SDS011;68321;51.276;7.208;2023-04-24T01:09:45;1.98;;;1.25;;
78925;SDS011;68321;51.276;7.208;2023-04-24T01:12:14;3.25;;;1.67;;
78925;SDS011;68321;51.276;7.208;2023-04-24T01:14:40;1.85;;;1.30;;
78925;SDS011;68321;51.276;7.208;2023-04-24T01:17:05;3.92;;;1.92;;
78925;SDS011;68321;51.276;7.208;2023-04-24T01:19:31;3.70;;;1.70;;
78925;SDS011;68321;51.276;7.208;2023-04-24T01:21:57;2.42;;;1.75;;
78925;SDS011;68321;51.276;7.208;2023-04-24T01:24:23;2.60;;;1.20;;
78925;SDS011;68321;51.276;7.208;2023-04-24T01:26:48;3.23;;;1.37;;
78925;SDS011;68321;51.276;7.208;2023-04-24T01:29:14;1.63;;;0.95;;
78925;SDS011;68321;51.276;7.208;2023-04-24T01:31:40;3.00;;;1.55;;
78925;SDS011;68321;51.276;7.208;2023-04-24T01:34:05;3.93;;;1.40;;
78925;SDS011;68321;51.276;7.208;2023-04-24T01:36:31;1.48;;;1.08;;
78925;SDS011;68321;51.276;7.208;2023-04-24T01:38:57;1.50;;;1.15;;
78925;SDS011;68321;51.276;7.208;2023-04-24T01:41:22;3.65;;;2.45;;
78925;SDS011;68321;51.276;7.208;2023-04-24T01:43:48;2.50;;;1.67;;
78925;SDS011;68321;51.276;7.208;2023-04-24T01:46:14;2.15;;;1.38;;
78925;SDS011;68321;51.276;7.208;2023-04-24T01:48:39;2.95;;;1.80;;
78925;SDS011;68321;51.276;7.208;2023-04-24T01:51:05;2.47;;;1.50;;
78925;SDS011;68321;51.276;7.208;2023-04-24T01:53:30;2.73;;;1.77;;
78925;SDS011;68321;51.276;7.208;2023-04-24T01:55:55;4.22;;;1.50;;
78925;SDS011;68321;51.276;7.208;2023-04-24T01:58:21;7.23;;;1.70;;
78925;SDS011;68321;51.276;7.208;2023-04-24T02:00:47;3.72;;;2.10;;
78925;SDS011;68321;51.276;7.208;2023-04-24T02:03:12;2.65;;;1.92;;
78925;SDS011;68321;51.276;7.208;2023-04-24T02:05:37;3.13;;;2.70;;
78925;SDS011;68321;51.276;7.208;2023-04-24T02:08:03;3.23;;;2.43;;
78925;SDS011;68321;51.276;7.208;2023-04-24T02:10:28;4.03;;;2.90;;
78925;SDS011;68321;51.276;7.208;2023-04-24T02:12:53;2.77;;;1.90;;
78925;SDS011;68321;51.276;7.208;2023-04-24T02:15:19;3.25;;;2.58;;
78925;SDS011;68321;51.276;7.208;2023-04-24T02:17:44;2.83;;;1.97;;
78925;SDS011;68321;51.276;7.208;2023-04-24T02:20:10;2.40;;;2.20;;
78925;SDS011;68321;51.276;7.208;2023-04-24T02:22:35;5.07;;;3.28;;
78925;SDS011;68321;51.276;7.208;2023-04-24T02:25:01;4.13;;;1.83;;
78925;SDS011;68321;51.276;7.208;2023-04-24T02:27:26;4.38;;;2.38;;
78925;SDS011;68321;51.276;7.208;2023-04-24T02:29:51;2.90;;;2.17;;
78925;SDS011;68321;51.276;7.208;2023-04-24T02:32:17;5.13;;;3.63;;
78925;SDS011;68321;51.276;7.208;2023-04-24T02:34:42;6.03;;;3.77;;
78925;SDS011;68321;51.276;7.208;2023-04-24T02:37:07;5.10;;;3.20;;
78925;SDS011;68321;51.276;7.208;2023-04-24T02:39:33;5.28;;;4.05;;
78925;SDS011;68321;51.276;7.208;2023-04-24T02:41:58;6.47;;;4.40;;
78925;SDS011;68321;51.276;7.208;2023-04-24T02:44:23;7.43;;;5.47;;
78925;SDS011;68321;51.276;7.208;2023-04-24T02:46:49;8.43;;;4.50;;
78925;SDS011;68321;51.276;7.208;2023-04-24T02:49:14;8.57;;;5.80;;
78925;SDS011;68321;51.276;7.208;2023-04-24T02:51:40;7.43;;;6.13;;
78925;SDS011;68321;51.276;7.208;2023-04-24T02:54:06;6.55;;;4.72;;
78925;SDS011;68321;51.276;7.208;2023-04-24T02:56:33;7.57;;;4.63;;
78925;SDS011;68321;51.276;7.208;2023-04-24T02:58:58;6.63;;;4.43;;
78925;SDS011;68321;51.276;7.208;2023-04-24T03:01:24;10.80;;;5.45;;
78925;SDS011;68321;51.276;7.208;2023-04-24T03:03:50;7.78;;;4.72;;
78925;SDS011;68321;51.276;7.208;2023-04-24T03:06:15;8.10;;;5.50;;
78925;SDS011;68321;51.276;7.208;2023-04-24T03:08:40;7.13;;;5.00;;
78925;SDS011;68321;51.276;7.208;2023-04-24T03:11:06;9.00;;;4.97;;
78925;SDS011;68321;51.276;7.208;2023-04-24T03:13:31;9.27;;;5.00;;
78925;SDS011;68321;51.276;7.208;2023-04-24T03:15:56;6.80;;;5.93;;
78925;SDS011;68321;51.276;7.208;2023-04-24T03:18:22;10.03;;;5.87;;
78925;SDS011;68321;51.276;7.208;2023-04-24T03:20:47;8.70;;;5.50;;
78925;SDS011;68321;51.276;7.208;2023-04-24T03:23:12;9.98;;;5.53;;
78925;SDS011;68321;51.276;7.208;2023-04-24T03:25:38;7.97;;;5.73;;
78925;SDS011;68321;51.276;7.208;2023-04-24T03:28:03;8.85;;;4.80;;
78925;SDS011;68321;51.276;7.208;2023-04-24T03:30:29;11.00;;;5.67;;
78925;SDS011;68321;51.276;7.208;2023-04-24T03:32:54;9.40;;;5.75;;
78925;SDS011;68321;51.276;7.208;2023-04-24T03:35:20;10.32;;;5.82;;
78925;SDS011;68321;51.276;7.208;2023-04-24T03:37:46;11.02;;;5.35;;
78925;SDS011;68321;51.276;7.208;2023-04-24T03:40:12;9.52;;;5.53;;
78925;SDS011;68321;51.276;7.208;2023-04-24T03:42:37;10.23;;;6.70;;
78925;SDS011;68321;51.276;7.208;2023-04-24T03:45:02;9.47;;;4.70;;
78925;SDS011;68321;51.276;7.208;2023-04-24T03:47:28;10.80;;;6.22;;
78925;SDS011;68321;51.276;7.208;2023-04-24T03:49:53;9.73;;;5.03;;
78925;SDS011;68321;51.276;7.208;2023-04-24T03:52:20;9.90;;;6.18;;
78925;SDS011;68321;51.276;7.208;2023-04-24T03:54:46;10.68;;;6.43;;
78925;SDS011;68321;51.276;7.208;2023-04-24T03:57:11;11.87;;;6.33;;
78925;SDS011;68321;51.276;7.208;2023-04-24T03:59:36;7.32;;;4.95;;
78925;SDS011;68321;51.276;7.208;2023-04-24T04:02:02;8.03;;;5.90;;
78925;SDS011;68321;51.276;7.208;2023-04-24T04:04:27;10.57;;;6.30;;
78925;SDS011;68321;51.276;7.208;2023-04-24T04:06:53;8.93;;;6.57;;
78925;SDS011;68321;51.276;7.208;2023-04-24T04:09:18;11.85;;;6.05;;
78925;SDS011;68321;51.276;7.208;2023-04-24T04:11:43;11.07;;;5.33;;
78925;SDS011;68321;51.276;7.208;2023-04-24T04:14:09;9.30;;;5.60;;
78925;SDS011;68321;51.276;7.208;2023-04-24T04:16:34;9.27;;;5.10;;
78925;SDS011;68321;51.276;7.208;2023-04-24T04:19:01;8.48;;;5.78;;
78925;SDS011;68321;51.276;7.208;2023-04-24T04:21:27;7.93;;;5.68;;
78925;SDS011;68321;51.276;7.208;2023-04-24T04:23:53;12.37;;;6.80;;
78925;SDS011;68321;51.276;7.208;2023-04-24T04:26:18;8.50;;;6.13;;
78925;SDS011;68321;51.276;7.208;2023-04-24T04:28:50;9.25;;;6.30;;
78925;SDS011;68321;51.276;7.208;2023-04-24T04:31:16;9.02;;;6.45;;
78925;SDS011;68321;51.276;7.208;2023-04-24T04:33:41;10.93;;;6.83;;
78925;SDS011;68321;51.276;7.208;2023-04-24T04:36:07;9.97;;;6.10;;
78925;SDS011;68321;51.276;7.208;2023-04-24T04:38:32;10.43;;;7.28;;
78925;SDS011;68321;51.276;7.208;2023-04-24T04:40:58;13.13;;;7.20;;
78925;SDS011;68321;51.276;7.208;2023-04-24T04:43:24;11.60;;;7.85;;
78925;SDS011;68321;51.276;7.208;2023-04-24T04:45:49;11.25;;;6.85;;
78925;SDS011;68321;51.276;7.208;2023-04-24T04:48:16;10.38;;;6.28;;
78925;SDS011;68321;51.276;7.208;2023-04-24T04:50:42;9.32;;;6.45;;
78925;SDS011;68321;51.276;7.208;2023-04-24T04:53:07;14.63;;;6.43;;
78925;SDS011;68321;51.276;7.208;2023-04-24T04:55:33;16.57;;;6.63;;
78925;SDS011;68321;51.276;7.208;2023-04-24T04:57:58;11.60;;;6.10;;
78925;SDS011;68321;51.276;7.208;2023-04-24T05:00:25;13.23;;;7.68;;
78925;SDS011;68321;51.276;7.208;2023-04-24T05:02:50;10.63;;;7.07;;
78925;SDS011;68321;51.276;7.208;2023-04-24T05:05:16;9.35;;;6.75;;
78925;SDS011;68321;51.276;7.208;2023-04-24T05:07:42;10.85;;;6.82;;
78925;SDS011;68321;51.276;7.208;2023-04-24T05:10:08;10.07;;;5.95;;
78925;SDS011;68321;51.276;7.208;2023-04-24T05:12:33;11.02;;;6.57;;
78925;SDS011;68321;51.276;7.208;2023-04-24T05:14:59;14.77;;;5.43;;
78925;SDS011;68321;51.276;7.208;2023-04-24T05:17:24;8.48;;;5.93;;
78925;SDS011;68321;51.276;7.208;2023-04-24T05:19:50;10.73;;;6.40;;
78925;SDS011;68321;51.276;7.208;2023-04-24T05:22:16;10.38;;;5.63;;
78925;SDS011;68321;51.276;7.208;2023-04-24T05:24:43;11.50;;;5.85;;
78925;SDS011;68321;51.276;7.208;2023-04-24T05:27:09;10.80;;;4.60;;
78925;SDS011;68321;51.276;7.208;2023-04-24T05:29:34;6.87;;;4.53;;
78925;SDS011;68321;51.276;7.208;2023-04-24T05:32:00;10.02;;;6.40;;
78925;SDS011;68321;51.276;7.208;2023-04-24T05:34:25;7.32;;;5.45;;
78925;SDS011;68321;51.276;7.208;2023-04-24T05:36:51;8.00;;;5.78;;
78925;SDS011;68321;51.276;7.208;2023-04-24T05:39:17;9.75;;;5.38;;
78925;SDS011;68321;51.276;7.208;2023-04-24T05:41:42;7.57;;;5.88;;
78925;SDS011;68321;51.276;7.208;2023-04-24T05:44:08;7.60;;;5.40;;
78925;SDS011;68321;51.276;7.208;2023-04-24T05:46:34;8.23;;;5.65;;
78925;SDS011;68321;51.276;7.208;2023-04-24T05:48:59;7.15;;;5.82;;
78925;SDS011;68321;51.276;7.208;2023-04-24T05:51:25;9.18;;;6.35;;
78925;SDS011;68321;51.276;7.208;2023-04-24T05:53:50;7.60;;;5.35;;
78925;SDS011;68321;51.276;7.208;2023-04-24T05:56:16;6.45;;;3.83;;
78925;SDS011;68321;51.276;7.208;2023-04-24T05:58:42;9.13;;;5.30;;
78925;SDS011;68321;51.276;7.208;2023-04-24T06:01:07;9.23;;;5.93;;
78925;SDS011;68321;51.276;7.208;2023-04-24T06:03:32;5.60;;;3.78;;
78925;SDS011;68321;51.276;7.208;2023-04-24T06:05:58;10.07;;;6.57;;
78925;SDS011;68321;51.276;7.208;2023-04-24T06:08:23;10.95;;;7.35;;
78925;SDS011;68321;51.276;7.208;2023-04-24T06:10:49;8.98;;;5.85;;
78925;SDS011;68321;51.276;7.208;2023-04-24T06:13:14;6.20;;;5.15;;
78925;SDS011;68321;51.276;7.208;2023-04-24T06:15:40;6.18;;;5.05;;
78925;SDS011;68321;51.276;7.208;2023-04-24T06:18:05;6.68;;;4.60;;
78925;SDS011;68321;51.276;7.208;2023-04-24T06:20:31;9.35;;;4.82;;
78925;SDS011;68321;51.276;7.208;2023-04-24T06:22:56;7.20;;;5.67;;
78925;SDS011;68321;51.276;7.208;2023-04-24T06:25:21;7.63;;;4.00;;
78925;SDS011;68321;51.276;7.208;2023-04-24T06:27:49;8.70;;;4.03;;
78925;SDS011;68321;51.276;7.208;2023-04-24T06:30:14;8.45;;;5.88;;
78925;SDS011;68321;51.276;7.208;2023-04-24T06:32:40;6.68;;;4.68;;
78925;SDS011;68321;51.276;7.208;2023-04-24T06:35:05;7.25;;;5.63;;
78925;SDS011;68321;51.276;7.208;2023-04-24T06:37:33;9.27;;;6.03;;
78925;SDS011;68321;51.276;7.208;2023-04-24T06:39:58;7.28;;;4.78;;
78925;SDS011;68321;51.276;7.208;2023-04-24T06:42:23;9.47;;;5.63;;
78925;SDS011;68321;51.276;7.208;2023-04-24T06:44:49;12.13;;;5.85;;
78925;SDS011;68321;51.276;7.208;2023-04-24T06:47:15;8.97;;;6.17;;
78925;SDS011;68321;51.276;7.208;2023-04-24T06:49:40;7.63;;;4.20;;
78925;SDS011;68321;51.276;7.208;2023-04-24T06:52:06;9.63;;;6.20;;
78925;SDS011;68321;51.276;7.208;2023-04-24T06:54:31;7.28;;;4.43;;
78925;SDS011;68321;51.276;7.208;2023-04-24T06:56:57;5.82;;;3.45;;
78925;SDS011;68321;51.276;7.208;2023-04-24T06:59:24;5.90;;;3.88;;
78925;SDS011;68321;51.276;7.208;2023-04-24T07:01:49;7.70;;;4.53;;
78925;SDS011;68321;51.276;7.208;2023-04-24T07:04:16;5.88;;;3.83;;
78925;SDS011;68321;51.276;7.208;2023-04-24T07:06:41;4.55;;;3.45;;
78925;SDS011;68321;51.276;7.208;2023-04-24T07:09:07;5.38;;;3.67;;
78925;SDS011;68321;51.276;7.208;2023-04-24T07:11:33;5.43;;;3.20;;
78925;SDS011;68321;51.276;7.208;2023-04-24T07:14:00;4.80;;;3.42;;
78925;SDS011;68321;51.276;7.208;2023-04-24T07:16:25;8.07;;;5.03;;
78925;SDS011;68321;51.276;7.208;2023-04-24T07:18:51;4.60;;;3.20;;
78925;SDS011;68321;51.276;7.208;2023-04-24T07:21:16;4.43;;;3.28;;
78925;SDS011;68321;51.276;7.208;2023-04-24T07:23:42;4.77;;;3.87;;
78925;SDS011;68321;51.276;7.208;2023-04-24T07:26:07;4.37;;;2.97;;
78925;SDS011;68321;51.276;7.208;2023-04-24T07:28:32;4.67;;;4.00;;
78925;SDS011;68321;51.276;7.208;2023-04-24T07:30:58;5.93;;;3.20;;
78925;SDS011;68321;51.276;7.208;2023-04-24T07:33:24;4.07;;;2.70;;
78925;SDS011;68321;51.276;7.208;2023-04-24T07:35:50;6.32;;;3.45;;
78925;SDS011;68321;51.276;7.208;2023-04-24T07:38:16;5.68;;;3.08;;
78925;SDS011;68321;51.276;7.208;2023-04-24T07:40:41;3.92;;;2.53;;
78925;SDS011;68321;51.276;7.208;2023-04-24T07:43:07;5.40;;;2.90;;
78925;SDS011;68321;51.276;7.208;2023-04-24T07:45:32;2.33;;;1.90;;
78925;SDS011;68321;51.276;7.208;2023-04-24T07:48:01;2.53;;;1.77;;
78925;SDS011;68321;51.276;7.208;2023-04-24T07:50:26;2.90;;;1.80;;
78925;SDS011;68321;51.276;7.208;2023-04-24T07:52:51;3.83;;;1.77;;
78925;SDS011;68321;51.276;7.208;2023-04-24T07:55:17;2.53;;;1.73;;
78925;SDS011;68321;51.276;7.208;2023-04-24T07:57:42;2.75;;;1.90;;
78925;SDS011;68321;51.276;7.208;2023-04-24T08:00:08;2.88;;;1.85;;
78925;SDS011;68321;51.276;7.208;2023-04-24T08:02:34;2.70;;;1.48;;
78925;SDS011;68321;51.276;7.208;2023-04-24T08:04:59;2.00;;;1.70;;
78925;SDS011;68321;51.276;7.208;2023-04-24T08:07:24;2.37;;;1.40;;
78925;SDS011;68321;51.276;7.208;2023-04-24T08:09:50;3.77;;;1.50;;
78925;SDS011;68321;51.276;7.208;2023-04-24T08:12:15;3.00;;;1.50;;
78925;SDS011;68321;51.276;7.208;2023-04-24T08:14:40;1.87;;;0.90;;
78925;SDS011;68321;51.276;7.208;2023-04-24T08:17:06;1.50;;;1.00;;
78925;SDS011;68321;51.276;7.208;2023-04-24T08:19:31;0.77;;;0.60;;
78925;SDS011;68321;51.276;7.208;2023-04-24T08:21:57;1.50;;;0.50;;
78925;SDS011;68321;51.276;7.208;2023-04-24T08:24:22;0.73;;;0.60;;
78925;SDS011;68321;51.276;7.208;2023-04-24T08:26:48;0.93;;;0.65;;
78925;SDS011;68321;51.276;7.208;2023-04-24T08:29:16;1.05;;;0.65;;
78925;SDS011;68321;51.276;7.208;2023-04-24T08:31:42;0.85;;;0.60;;
78925;SDS011;68321;51.276;7.208;2023-04-24T08:34:07;1.33;;;0.63;;
78925;SDS011;68321;51.276;7.208;2023-04-24T08:36:32;0.93;;;0.73;;
78925;SDS011;68321;51.276;7.208;2023-04-24T08:38:58;1.08;;;0.80;;
78925;SDS011;68321;51.276;7.208;2023-04-24T08:41:23;0.93;;;0.70;;
78925;SDS011;68321;51.276;7.208;2023-04-24T08:43:51;1.75;;;1.20;;
78925;SDS011;68321;51.276;7.208;2023-04-24T08:46:16;1.50;;;0.75;;
78925;SDS011;68321;51.276;7.208;2023-04-24T08:48:43;1.02;;;0.80;;
78925;SDS011;68321;51.276;7.208;2023-04-24T08:51:09;1.75;;;0.98;;
78925;SDS011;68321;51.276;7.208;2023-04-24T08:53:35;2.30;;;1.35;;
78925;SDS011;68321;51.276;7.208;2023-04-24T08:56:00;2.13;;;1.00;;
78925;SDS011;68321;51.276;7.208;2023-04-24T08:58:26;1.85;;;1.13;;
78925;SDS011;68321;51.276;7.208;2023-04-24T09:00:54;2.33;;;1.10;;
78925;SDS011;68321;51.276;7.208;2023-04-24T09:03:20;0.52;;;0.38;;
78925;SDS011;68321;51.276;7.208;2023-04-24T09:05:46;1.33;;;0.77;;
78925;SDS011;68321;51.276;7.208;2023-04-24T09:08:13;1.88;;;1.08;;
78925;SDS011;68321;51.276;7.208;2023-04-24T09:10:39;1.58;;;0.68;;
78925;SDS011;68321;51.276;7.208;2023-04-24T09:13:05;0.82;;;0.70;;
78925;SDS011;68321;51.276;7.208;2023-04-24T09:15:30;1.50;;;1.08;;
78925;SDS011;68321;51.276;7.208;2023-04-24T09:17:56;1.35;;;0.98;;
78925;SDS011;68321;51.276;7.208;2023-04-24T09:20:21;1.63;;;0.90;;
78925;SDS011;68321;51.276;7.208;2023-04-24T09:22:47;0.73;;;0.60;;
78925;SDS011;68321;51.276;7.208;2023-04-24T09:25:12;1.30;;;0.88;;
78925;SDS011;68321;51.276;7.208;2023-04-24T09:27:41;2.28;;;1.50;;
78925;SDS011;68321;51.276;7.208;2023-04-24T09:30:07;3.10;;;1.17;;
78925;SDS011;68321;51.276;7.208;2023-04-24T09:32:33;2.20;;;1.52;;
78925;SDS011;68321;51.276;7.208;2023-04-24T09:35:11;1.83;;;1.10;;
78925;SDS011;68321;51.276;7.208;2023-04-24T09:37:38;3.53;;;1.40;;
78925;SDS011;68321;51.276;7.208;2023-04-24T09:40:14;2.90;;;1.58;;
78925;SDS011;68321;51.276;7.208;2023-04-24T09:42:44;2.97;;;1.95;;
78925;SDS011;68321;51.276;7.208;2023-04-24T09:45:20;4.65;;;2.83;;
78925;SDS011;68321;51.276;7.208;2023-04-24T09:47:45;3.38;;;2.10;;
78925;SDS011;68321;51.276;7.208;2023-04-24T09:50:14;3.47;;;2.10;;
78925;SDS011;68321;51.276;7.208;2023-04-24T09:52:45;2.75;;;1.83;;
78925;SDS011;68321;51.276;7.208;2023-04-24T09:55:20;4.22;;;2.17;;
78925;SDS011;68321;51.276;7.208;2023-04-24T09:57:54;3.22;;;2.10;;
78925;SDS011;68321;51.276;7.208;2023-04-24T10:00:21;2.40;;;2.05;;
78925;SDS011;68321;51.276;7.208;2023-04-24T10:03:01;3.63;;;1.80;;
78925;SDS011;68321;51.276;7.208;2023-04-24T10:08:04;4.45;;;2.63;;
78925;SDS011;68321;51.276;7.208;2023-04-24T10:10:31;4.30;;;2.67;;
78925;SDS011;68321;51.276;7.208;2023-04-24T10:12:57;4.75;;;3.05;;
78925;SDS011;68321;51.276;7.208;2023-04-24T10:15:24;4.40;;;2.58;;
78925;SDS011;68321;51.276;7.208;2023-04-24T10:17:51;4.07;;;2.05;;
78925;SDS011;68321;51.276;7.208;2023-04-24T10:20:23;4.60;;;2.78;;
78925;SDS011;68321;51.276;7.208;2023-04-24T10:22:50;3.22;;;2.40;;
78925;SDS011;68321;51.276;7.208;2023-04-24T10:25:20;6.18;;;3.60;;
78925;SDS011;68321;51.276;7.208;2023-04-24T10:27:47;3.67;;;3.10;;
78925;SDS011;68321;51.276;7.208;2023-04-24T10:30:13;2.90;;;2.30;;
78925;SDS011;68321;51.276;7.208;2023-04-24T10:32:39;3.78;;;2.22;;
78925;SDS011;68321;51.276;7.208;2023-04-24T10:35:08;2.97;;;2.08;;
78925;SDS011;68321;51.276;7.208;2023-04-24T10:37:35;3.70;;;2.05;;
78925;SDS011;68321;51.276;7.208;2023-04-24T10:40:03;3.53;;;2.40;;
78925;SDS011;68321;51.276;7.208;2023-04-24T10:42:29;5.13;;;2.17;;
78925;SDS011;68321;51.276;7.208;2023-04-24T10:44:54;9.13;;;2.50;;
78925;SDS011;68321;51.276;7.208;2023-04-24T10:47:21;4.97;;;2.90;;
78925;SDS011;68321;51.276;7.208;2023-04-24T10:49:46;5.32;;;2.97;;
78925;SDS011;68321;51.276;7.208;2023-04-24T10:52:15;5.70;;;2.42;;
78925;SDS011;68321;51.276;7.208;2023-04-24T10:54:45;8.40;;;2.38;;
78925;SDS011;68321;51.276;7.208;2023-04-24T10:59:49;4.18;;;2.42;;
78925;SDS011;68321;51.276;7.208;2023-04-24T11:02:16;6.20;;;2.58;;
78925;SDS011;68321;51.276;7.208;2023-04-24T11:04:42;5.68;;;2.65;;
78925;SDS011;68321;51.276;7.208;2023-04-24T11:07:08;7.53;;;2.60;;
78925;SDS011;68321;51.276;7.208;2023-04-24T11:09:35;9.52;;;2.97;;
78925;SDS011;68321;51.276;7.208;2023-04-24T11:14:58;3.65;;;2.47;;
78925;SDS011;68321;51.276;7.208;2023-04-24T11:20:04;9.05;;;2.83;;
78925;SDS011;68321;51.276;7.208;2023-04-24T11:22:38;5.47;;;2.72;;
78925;SDS011;68321;51.276;7.208;2023-04-24T11:25:07;8.40;;;3.08;;
78925;SDS011;68321;51.276;7.208;2023-04-24T11:27:40;6.53;;;2.53;;
78925;SDS011;68321;51.276;7.208;2023-04-24T11:30:09;6.95;;;3.15;;
78925;SDS011;68321;51.276;7.208;2023-04-24T11:32:36;4.97;;;3.10;;
78925;SDS011;68321;51.276;7.208;2023-04-24T11:35:04;2.33;;;1.75;;
78925;SDS011;68321;51.276;7.208;2023-04-24T11:37:35;4.78;;;3.10;;
78925;SDS011;68321;51.276;7.208;2023-04-24T11:40:02;10.68;;;3.97;;
78925;SDS011;68321;51.276;7.208;2023-04-24T11:42:29;5.25;;;3.53;;
78925;SDS011;68321;51.276;7.208;2023-04-24T11:44:59;12.52;;;3.55;;
78925;SDS011;68321;51.276;7.208;2023-04-24T11:47:28;6.13;;;3.00;;
78925;SDS011;68321;51.276;7.208;2023-04-24T11:49:58;6.85;;;4.13;;
78925;SDS011;68321;51.276;7.208;2023-04-24T11:52:24;11.05;;;3.65;;
78925;SDS011;68321;51.276;7.208;2023-04-24T11:54:50;5.80;;;2.17;;
78925;SDS011;68321;51.276;7.208;2023-04-24T11:57:16;7.20;;;3.37;;
78925;SDS011;68321;51.276;7.208;2023-04-24T11:59:43;6.10;;;2.78;;
78925;SDS011;68321;51.276;7.208;2023-04-24T12:02:09;8.30;;;3.58;;
78925;SDS011;68321;51.276;7.208;2023-04-24T12:04:45;6.22;;;2.80;;
78925;SDS011;68321;51.276;7.208;2023-04-24T12:07:10;6.27;;;2.20;;
78925;SDS011;68321;51.276;7.208;2023-04-24T12:09:46;4.82;;;2.75;;
78925;SDS011;68321;51.276;7.208;2023-04-24T12:12:13;6.10;;;3.22;;
78925;SDS011;68321;51.276;7.208;2023-04-24T12:17:14;4.50;;;2.47;;
78925;SDS011;68321;51.276;7.208;2023-04-24T12:19:44;10.52;;;3.90;;
78925;SDS011;68321;51.276;7.208;2023-04-24T12:22:10;4.50;;;2.80;;
78925;SDS011;68321;51.276;7.208;2023-04-24T12:24:55;5.63;;;2.33;;
78925;SDS011;68321;51.276;7.208;2023-04-24T12:27:33;2.95;;;1.60;;
78925;SDS011;68321;51.276;7.208;2023-04-24T12:29:59;4.57;;;2.58;;
78925;SDS011;68321;51.276;7.208;2023-04-24T12:32:25;6.63;;;3.35;;
78925;SDS011;68321;51.276;7.208;2023-04-24T12:34:51;5.40;;;2.30;;
78925;SDS011;68321;51.276;7.208;2023-04-24T12:37:17;8.65;;;2.50;;
78925;SDS011;68321;51.276;7.208;2023-04-24T12:42:33;3.35;;;1.75;;
78925;SDS011;68321;51.276;7.208;2023-04-24T12:45:00;5.72;;;2.20;;
78925;SDS011;68321;51.276;7.208;2023-04-24T12:47:30;6.35;;;2.63;;
78925;SDS011;68321;51.276;7.208;2023-04-24T12:49:55;7.47;;;3.10;;
78925;SDS011;68321;51.276;7.208;2023-04-24T12:52:21;3.47;;;2.30;;
78925;SDS011;68321;51.276;7.208;2023-04-24T12:54:48;4.25;;;2.13;;
78925;SDS011;68321;51.276;7.208;2023-04-24T12:57:14;4.18;;;2.30;;
78925;SDS011;68321;51.276;7.208;2023-04-24T12:59:40;5.38;;;2.45;;
78925;SDS011;68321;51.276;7.208;2023-04-24T13:02:06;8.32;;;2.60;;
78925;SDS011;68321;51.276;7.208;2023-04-24T13:04:31;8.27;;;3.08;;
78925;SDS011;68321;51.276;7.208;2023-04-24T13:06:57;4.70;;;2.28;;
78925;SDS011;68321;51.276;7.208;2023-04-24T13:09:22;6.07;;;2.30;;
78925;SDS011;68321;51.276;7.208;2023-04-24T13:11:48;5.57;;;2.42;;
78925;SDS011;68321;51.276;7.208;2023-04-24T13:14:14;3.40;;;2.40;;
78925;SDS011;68321;51.276;7.208;2023-04-24T13:16:40;2.60;;;1.95;;
78925;SDS011;68321;51.276;7.208;2023-04-24T13:19:05;7.63;;;2.63;;
78925;SDS011;68321;51.276;7.208;2023-04-24T13:21:31;5.23;;;2.60;;
78925;SDS011;68321;51.276;7.208;2023-04-24T13:23:56;3.40;;;1.88;;
78925;SDS011;68321;51.276;7.208;2023-04-24T13:26:22;5.83;;;2.40;;
78925;SDS011;68321;51.276;7.208;2023-04-24T13:28:47;5.73;;;2.30;;
78925;SDS011;68321;51.276;7.208;2023-04-24T13:31:13;4.30;;;2.20;;
78925;SDS011;68321;51.276;7.208;2023-04-24T13:33:38;2.35;;;1.65;;
78925;SDS011;68321;51.276;7.208;2023-04-24T13:36:05;3.30;;;2.13;;
78925;SDS011;68321;51.276;7.208;2023-04-24T13:38:30;3.35;;;1.90;;
78925;SDS011;68321;51.276;7.208;2023-04-24T13:40:55;4.65;;;1.92;;
78925;SDS011;68321;51.276;7.208;2023-04-24T13:43:21;3.05;;;2.22;;
78925;SDS011;68321;51.276;7.208;2023-04-24T13:45:46;3.10;;;1.83;;
78925;SDS011;68321;51.276;7.208;2023-04-24T13:48:12;3.63;;;1.63;;
78925;SDS011;68321;51.276;7.208;2023-04-24T13:50:40;4.43;;;1.60;;
78925;SDS011;68321;51.276;7.208;2023-04-24T13:53:06;3.75;;;1.83;;
78925;SDS011;68321;51.276;7.208;2023-04-24T13:55:31;3.03;;;1.80;;
78925;SDS011;68321;51.276;7.208;2023-04-24T13:57:57;2.25;;;1.23;;
78925;SDS011;68321;51.276;7.208;2023-04-24T14:00:22;5.38;;;1.50;;
78925;SDS011;68321;51.276;7.208;2023-04-24T14:02:48;2.72;;;1.20;;
78925;SDS011;68321;51.276;7.208;2023-04-24T14:05:13;2.80;;;1.80;;
78925;SDS011;68321;51.276;7.208;2023-04-24T14:07:40;4.43;;;1.85;;
78925;SDS011;68321;51.276;7.208;2023-04-24T14:10:06;3.15;;;1.70;;
78925;SDS011;68321;51.276;7.208;2023-04-24T14:12:31;5.07;;;1.70;;
78925;SDS011;68321;51.276;7.208;2023-04-24T14:14:57;4.13;;;1.30;;
78925;SDS011;68321;51.276;7.208;2023-04-24T14:17:22;3.08;;;1.17;;
78925;SDS011;68321;51.276;7.208;2023-04-24T14:19:47;2.07;;;1.13;;
78925;SDS011;68321;51.276;7.208;2023-04-24T14:22:13;1.57;;;1.27;;
78925;SDS011;68321;51.276;7.208;2023-04-24T14:24:38;2.60;;;2.00;;
78925;SDS011;68321;51.276;7.208;2023-04-24T14:27:03;1.87;;;1.20;;
78925;SDS011;68321;51.276;7.208;2023-04-24T14:29:29;2.95;;;1.58;;
78925;SDS011;68321;51.276;7.208;2023-04-24T14:31:54;8.07;;;2.15;;
78925;SDS011;68321;51.276;7.208;2023-04-24T14:34:19;4.90;;;1.83;;
78925;SDS011;68321;51.276;7.208;2023-04-24T14:36:45;4.97;;;1.93;;
78925;SDS011;68321;51.276;7.208;2023-04-24T14:39:10;2.37;;;1.70;;
78925;SDS011;68321;51.276;7.208;2023-04-24T14:41:36;3.13;;;1.70;;
78925;SDS011;68321;51.276;7.208;2023-04-24T14:44:02;3.08;;;1.55;;
78925;SDS011;68321;51.276;7.208;2023-04-24T14:46:28;3.38;;;2.00;;
78925;SDS011;68321;51.276;7.208;2023-04-24T14:48:55;3.05;;;1.38;;
78925;SDS011;68321;51.276;7.208;2023-04-24T14:51:21;2.97;;;1.65;;
78925;SDS011;68321;51.276;7.208;2023-04-24T14:53:46;3.42;;;1.88;;
78925;SDS011;68321;51.276;7.208;2023-04-24T14:56:12;1.73;;;1.58;;